sensor_id;sensor_type;location;lat;lon;timestamp;temperature;humidity
3350;DHT22;1688;51.000;13.684;2023-10-19T00:00:19;9.90;99.90
3350;DHT22;1688;51.000;13.684;2023-10-19T00:02:52;9.90;99.90
3350;DHT22;1688;51.000;13.684;2023-10-19T00:05:25;9.90;99.90
3350;DHT22;1688;51.000;13.684;2023-10-19T00:08:03;9.90;99.90
3350;DHT22;1688;51.000;13.684;2023-10-19T00:10:55;9.90;99.90
3350;DHT22;1688;51.000;13.684;2023-10-19T00:13:37;9.90;99.90
3350;DHT22;1688;51.000;13.684;2023-10-19T00:16:11;9.90;99.90
3350;DHT22;1688;51.000;13.684;2023-10-19T00:18:50;9.90;99.90
3350;DHT22;1688;51.000;13.684;2023-10-19T00:21:25;9.80;99.90
3350;DHT22;1688;51.000;13.684;2023-10-19T00:23:58;9.80;99.90
3350;DHT22;1688;51.000;13.684;2023-10-19T00:26:37;9.90;99.90
3350;DHT22;1688;51.000;13.684;2023-10-19T00:29:12;10.00;99.90
3350;DHT22;1688;51.000;13.684;2023-10-19T00:32:04;10.10;99.90
3350;DHT22;1688;51.000;13.684;2023-10-19T00:34:39;10.10;99.90
3350;DHT22;1688;51.000;13.684;2023-10-19T00:37:12;10.20;99.90
3350;DHT22;1688;51.000;13.684;2023-10-19T00:39:51;10.10;99.90
3350;DHT22;1688;51.000;13.684;2023-10-19T00:42:27;10.10;99.90
3350;DHT22;1688;51.000;13.684;2023-10-19T00:45:04;10.10;99.90
3350;DHT22;1688;51.000;13.684;2023-10-19T00:47:38;10.10;99.90
3350;DHT22;1688;51.000;13.684;2023-10-19T00:50:15;10.20;99.90
3350;DHT22;1688;51.000;13.684;2023-10-19T00:52:49;10.20;99.90
3350;DHT22;1688;51.000;13.684;2023-10-19T00:55:23;10.20;99.90
3350;DHT22;1688;51.000;13.684;2023-10-19T00:57:59;10.30;99.90
3350;DHT22;1688;51.000;13.684;2023-10-19T01:00:37;10.30;99.90
3350;DHT22;1688;51.000;13.684;2023-10-19T01:03:16;10.40;99.90
3350;DHT22;1688;51.000;13.684;2023-10-19T01:05:50;10.40;99.90
3350;DHT22;1688;51.000;13.684;2023-10-19T01:08:23;10.40;99.90
3350;DHT22;1688;51.000;13.684;2023-10-19T01:11:13;10.40;99.90
3350;DHT22;1688;51.000;13.684;2023-10-19T01:13:48;10.40;99.90
3350;DHT22;1688;51.000;13.684;2023-10-19T01:16:21;10.30;99.90
3350;DHT22;1688;51.000;13.684;2023-10-19T01:18:54;10.30;99.90
3350;DHT22;1688;51.000;13.684;2023-10-19T01:21:27;10.40;99.90
3350;DHT22;1688;51.000;13.684;2023-10-19T01:24:10;10.50;99.90
3350;DHT22;1688;51.000;13.684;2023-10-19T01:26:45;10.50;99.90
3350;DHT22;1688;51.000;13.684;2023-10-19T01:29:20;10.50;99.90
3350;DHT22;1688;51.000;13.684;2023-10-19T01:31:59;10.50;99.90
3350;DHT22;1688;51.000;13.684;2023-10-19T01:34:41;10.60;99.90
3350;DHT22;1688;51.000;13.684;2023-10-19T01:37:16;10.60;99.90
3350;DHT22;1688;51.000;13.684;2023-10-19T01:39:48;10.60;99.90
3350;DHT22;1688;51.000;13.684;2023-10-19T01:42:21;10.60;99.90
3350;DHT22;1688;51.000;13.684;2023-10-19T01:44:54;10.70;99.90
3350;DHT22;1688;51.000;13.684;2023-10-19T01:47:27;10.70;99.90
3350;DHT22;1688;51.000;13.684;2023-10-19T01:50:01;10.70;99.90
3350;DHT22;1688;51.000;13.684;2023-10-19T01:52:34;10.60;99.90
3350;DHT22;1688;51.000;13.684;2023-10-19T01:55:07;10.70;99.90
3350;DHT22;1688;51.000;13.684;2023-10-19T01:57:41;10.60;99.90
3350;DHT22;1688;51.000;13.684;2023-10-19T02:00:14;10.60;99.90
3350;DHT22;1688;51.000;13.684;2023-10-19T02:02:55;10.60;99.90
3350;DHT22;1688;51.000;13.684;2023-10-19T02:05:28;10.60;99.90
3350;DHT22;1688;51.000;13.684;2023-10-19T02:08:11;10.70;99.90
3350;DHT22;1688;51.000;13.684;2023-10-19T02:10:47;10.70;99.90
3350;DHT22;1688;51.000;13.684;2023-10-19T02:13:21;10.70;99.90
3350;DHT22;1688;51.000;13.684;2023-10-19T02:15:54;10.70;99.90
3350;DHT22;1688;51.000;13.684;2023-10-19T02:18:29;10.80;99.90
3350;DHT22;1688;51.000;13.684;2023-10-19T02:21:02;10.70;99.90
3350;DHT22;1688;51.000;13.684;2023-10-19T02:23:40;10.80;99.90
3350;DHT22;1688;51.000;13.684;2023-10-19T02:26:19;10.80;99.90
3350;DHT22;1688;51.000;13.684;2023-10-19T02:29:04;10.80;99.90
3350;DHT22;1688;51.000;13.684;2023-10-19T02:31:41;10.80;99.90
3350;DHT22;1688;51.000;13.684;2023-10-19T02:34:14;10.70;99.90
3350;DHT22;1688;51.000;13.684;2023-10-19T02:36:50;10.70;99.90
3350;DHT22;1688;51.000;13.684;2023-10-19T02:39:23;10.80;99.90
3350;DHT22;1688;51.000;13.684;2023-10-19T02:42:01;10.80;99.90
3350;DHT22;1688;51.000;13.684;2023-10-19T02:44:36;10.80;99.90
3350;DHT22;1688;51.000;13.684;2023-10-19T02:47:10;10.70;99.90
3350;DHT22;1688;51.000;13.684;2023-10-19T02:49:43;10.70;99.90
3350;DHT22;1688;51.000;13.684;2023-10-19T02:52:23;10.70;99.90
3350;DHT22;1688;51.000;13.684;2023-10-19T02:54:56;10.70;99.90
3350;DHT22;1688;51.000;13.684;2023-10-19T02:57:29;10.70;99.90
3350;DHT22;1688;51.000;13.684;2023-10-19T03:00:07;10.60;99.90
3350;DHT22;1688;51.000;13.684;2023-10-19T03:02:44;10.60;99.90
3350;DHT22;1688;51.000;13.684;2023-10-19T03:05:17;10.60;99.90
3350;DHT22;1688;51.000;13.684;2023-10-19T03:07:50;10.60;99.90
3350;DHT22;1688;51.000;13.684;2023-10-19T03:10:25;10.60;99.90
3350;DHT22;1688;51.000;13.684;2023-10-19T03:13:10;10.50;99.90
3350;DHT22;1688;51.000;13.684;2023-10-19T03:15:47;10.60;99.90
3350;DHT22;1688;51.000;13.684;2023-10-19T03:18:21;10.50;99.90
3350;DHT22;1688;51.000;13.684;2023-10-19T03:20:54;10.50;99.90
3350;DHT22;1688;51.000;13.684;2023-10-19T03:23:27;10.30;99.90
3350;DHT22;1688;51.000;13.684;2023-10-19T03:26:01;10.30;99.90
3350;DHT22;1688;51.000;13.684;2023-10-19T03:28:52;10.20;99.90
3350;DHT22;1688;51.000;13.684;2023-10-19T03:31:28;10.20;99.90
3350;DHT22;1688;51.000;13.684;2023-10-19T03:34:02;10.10;99.90
3350;DHT22;1688;51.000;13.684;2023-10-19T03:36:38;10.00;99.90
3350;DHT22;1688;51.000;13.684;2023-10-19T03:39:11;9.90;99.90
3350;DHT22;1688;51.000;13.684;2023-10-19T03:41:45;9.80;99.90
3350;DHT22;1688;51.000;13.684;2023-10-19T03:44:18;9.70;99.90
3350;DHT22;1688;51.000;13.684;2023-10-19T03:46:57;9.70;99.90
3350;DHT22;1688;51.000;13.684;2023-10-19T03:49:32;9.60;99.90
3350;DHT22;1688;51.000;13.684;2023-10-19T03:52:11;9.50;99.90
3350;DHT22;1688;51.000;13.684;2023-10-19T03:54:45;9.40;99.90
3350;DHT22;1688;51.000;13.684;2023-10-19T03:57:19;9.40;99.90
3350;DHT22;1688;51.000;13.684;2023-10-19T03:59:52;9.30;99.90
3350;DHT22;1688;51.000;13.684;2023-10-19T04:02:28;9.30;99.90
3350;DHT22;1688;51.000;13.684;2023-10-19T04:05:08;9.30;99.90
3350;DHT22;1688;51.000;13.684;2023-10-19T04:07:47;9.40;99.90
3350;DHT22;1688;51.000;13.684;2023-10-19T04:10:23;9.30;99.90
3350;DHT22;1688;51.000;13.684;2023-10-19T04:13:02;9.30;99.90
3350;DHT22;1688;51.000;13.684;2023-10-19T04:15:36;9.20;99.90
3350;DHT22;1688;51.000;13.684;2023-10-19T04:18:09;9.20;99.90
3350;DHT22;1688;51.000;13.684;2023-10-19T04:20:42;9.20;99.90
3350;DHT22;1688;51.000;13.684;2023-10-19T04:23:28;9.20;99.90
3350;DHT22;1688;51.000;13.684;2023-10-19T04:26:01;9.10;99.90
3350;DHT22;1688;51.000;13.684;2023-10-19T04:28:41;9.00;99.90
3350;DHT22;1688;51.000;13.684;2023-10-19T04:31:17;9.00;99.90
3350;DHT22;1688;51.000;13.684;2023-10-19T04:33:51;8.90;99.90
3350;DHT22;1688;51.000;13.684;2023-10-19T04:36:27;8.80;99.90
3350;DHT22;1688;51.000;13.684;2023-10-19T04:39:00;8.70;99.90
3350;DHT22;1688;51.000;13.684;2023-10-19T04:41:32;8.60;99.90
3350;DHT22;1688;51.000;13.684;2023-10-19T04:44:06;8.60;99.90
3350;DHT22;1688;51.000;13.684;2023-10-19T04:46:41;8.50;99.90
3350;DHT22;1688;51.000;13.684;2023-10-19T04:49:14;8.50;99.90
3350;DHT22;1688;51.000;13.684;2023-10-19T04:51:48;8.50;99.90
3350;DHT22;1688;51.000;13.684;2023-10-19T04:54:21;8.50;99.90
3350;DHT22;1688;51.000;13.684;2023-10-19T04:56:54;8.50;99.90
3350;DHT22;1688;51.000;13.684;2023-10-19T04:59:28;8.50;99.90
3350;DHT22;1688;51.000;13.684;2023-10-19T05:02:05;8.50;99.90
3350;DHT22;1688;51.000;13.684;2023-10-19T05:04:38;8.50;99.90
3350;DHT22;1688;51.000;13.684;2023-10-19T05:07:13;8.50;99.90
3350;DHT22;1688;51.000;13.684;2023-10-19T05:09:49;8.50;99.90
3350;DHT22;1688;51.000;13.684;2023-10-19T05:12:22;8.50;99.90
3350;DHT22;1688;51.000;13.684;2023-10-19T05:14:55;8.50;99.90
3350;DHT22;1688;51.000;13.684;2023-10-19T05:17:28;8.50;99.90
3350;DHT22;1688;51.000;13.684;2023-10-19T05:20:01;8.50;99.90
3350;DHT22;1688;51.000;13.684;2023-10-19T05:22:34;8.50;99.90
3350;DHT22;1688;51.000;13.684;2023-10-19T05:25:07;8.40;99.90
3350;DHT22;1688;51.000;13.684;2023-10-19T05:27:40;8.30;99.90
3350;DHT22;1688;51.000;13.684;2023-10-19T05:30:15;8.20;99.90
3350;DHT22;1688;51.000;13.684;2023-10-19T05:32:48;8.10;99.90
3350;DHT22;1688;51.000;13.684;2023-10-19T05:35:23;8.10;99.90
3350;DHT22;1688;51.000;13.684;2023-10-19T05:37:58;8.10;99.90
3350;DHT22;1688;51.000;13.684;2023-10-19T05:40:32;8.00;99.90
3350;DHT22;1688;51.000;13.684;2023-10-19T05:43:05;8.00;99.90
3350;DHT22;1688;51.000;13.684;2023-10-19T05:45:40;8.00;99.90
3350;DHT22;1688;51.000;13.684;2023-10-19T05:48:13;7.90;99.90
3350;DHT22;1688;51.000;13.684;2023-10-19T05:50:47;7.90;99.90
3350;DHT22;1688;51.000;13.684;2023-10-19T05:53:20;8.00;99.90
3350;DHT22;1688;51.000;13.684;2023-10-19T05:55:55;7.90;99.90
3350;DHT22;1688;51.000;13.684;2023-10-19T05:58:28;7.90;99.90
3350;DHT22;1688;51.000;13.684;2023-10-19T06:01:01;7.90;99.90
3350;DHT22;1688;51.000;13.684;2023-10-19T06:03:33;7.90;99.90
3350;DHT22;1688;51.000;13.684;2023-10-19T06:06:06;7.90;99.90
3350;DHT22;1688;51.000;13.684;2023-10-19T06:08:43;8.00;99.90
3350;DHT22;1688;51.000;13.684;2023-10-19T06:11:15;8.00;99.90
3350;DHT22;1688;51.000;13.684;2023-10-19T06:13:48;8.00;99.90
3350;DHT22;1688;51.000;13.684;2023-10-19T06:16:21;8.00;99.90
3350;DHT22;1688;51.000;13.684;2023-10-19T06:18:55;8.00;99.90
3350;DHT22;1688;51.000;13.684;2023-10-19T06:21:28;8.10;99.90
3350;DHT22;1688;51.000;13.684;2023-10-19T06:24:01;8.10;99.90
3350;DHT22;1688;51.000;13.684;2023-10-19T06:26:35;8.20;99.90
3350;DHT22;1688;51.000;13.684;2023-10-19T06:29:09;8.20;99.90
3350;DHT22;1688;51.000;13.684;2023-10-19T06:31:41;8.20;99.90
3350;DHT22;1688;51.000;13.684;2023-10-19T06:34:16;8.20;99.90
3350;DHT22;1688;51.000;13.684;2023-10-19T06:36:50;8.20;99.90
3350;DHT22;1688;51.000;13.684;2023-10-19T06:39:23;8.30;99.90
3350;DHT22;1688;51.000;13.684;2023-10-19T06:41:57;8.30;99.90
3350;DHT22;1688;51.000;13.684;2023-10-19T06:44:30;8.30;99.90
3350;DHT22;1688;51.000;13.684;2023-10-19T06:47:03;8.40;99.90
3350;DHT22;1688;51.000;13.684;2023-10-19T06:49:36;8.40;99.90
3350;DHT22;1688;51.000;13.684;2023-10-19T06:52:10;8.50;99.90
3350;DHT22;1688;51.000;13.684;2023-10-19T06:54:44;8.50;99.90
3350;DHT22;1688;51.000;13.684;2023-10-19T06:57:17;8.50;99.90
3350;DHT22;1688;51.000;13.684;2023-10-19T06:59:49;8.50;99.90
3350;DHT22;1688;51.000;13.684;2023-10-19T07:02:25;8.60;99.90
3350;DHT22;1688;51.000;13.684;2023-10-19T07:04:59;8.50;99.90
3350;DHT22;1688;51.000;13.684;2023-10-19T07:07:32;8.50;99.90
3350;DHT22;1688;51.000;13.684;2023-10-19T07:10:07;8.50;99.90
3350;DHT22;1688;51.000;13.684;2023-10-19T07:12:43;8.50;99.90
3350;DHT22;1688;51.000;13.684;2023-10-19T07:15:16;8.50;99.90
3350;DHT22;1688;51.000;13.684;2023-10-19T07:17:52;8.50;99.90
3350;DHT22;1688;51.000;13.684;2023-10-19T07:20:27;8.40;99.90
3350;DHT22;1688;51.000;13.684;2023-10-19T07:23:09;8.50;99.90
3350;DHT22;1688;51.000;13.684;2023-10-19T07:25:53;8.40;99.90
3350;DHT22;1688;51.000;13.684;2023-10-19T07:28:32;8.40;99.90
3350;DHT22;1688;51.000;13.684;2023-10-19T07:31:09;8.40;99.90
3350;DHT22;1688;51.000;13.684;2023-10-19T07:33:48;8.40;99.90
3350;DHT22;1688;51.000;13.684;2023-10-19T07:36:22;8.40;99.90
3350;DHT22;1688;51.000;13.684;2023-10-19T07:38:57;8.50;99.90
3350;DHT22;1688;51.000;13.684;2023-10-19T07:41:30;8.40;99.90
3350;DHT22;1688;51.000;13.684;2023-10-19T07:44:08;8.50;99.90
3350;DHT22;1688;51.000;13.684;2023-10-19T07:46:41;8.40;99.90
3350;DHT22;1688;51.000;13.684;2023-10-19T07:49:15;8.50;99.90
3350;DHT22;1688;51.000;13.684;2023-10-19T07:51:48;8.50;99.90
3350;DHT22;1688;51.000;13.684;2023-10-19T07:54:22;8.50;99.90
3350;DHT22;1688;51.000;13.684;2023-10-19T07:56:55;8.40;99.90
3350;DHT22;1688;51.000;13.684;2023-10-19T07:59:28;8.50;99.90
3350;DHT22;1688;51.000;13.684;2023-10-19T08:02:01;8.60;99.90
3350;DHT22;1688;51.000;13.684;2023-10-19T08:04:37;8.60;99.90
3350;DHT22;1688;51.000;13.684;2023-10-19T08:07:10;8.70;99.90
3350;DHT22;1688;51.000;13.684;2023-10-19T08:09:43;8.80;99.90
3350;DHT22;1688;51.000;13.684;2023-10-19T08:12:16;8.80;99.90
3350;DHT22;1688;51.000;13.684;2023-10-19T08:14:49;8.80;99.90
3350;DHT22;1688;51.000;13.684;2023-10-19T08:17:22;8.90;99.90
3350;DHT22;1688;51.000;13.684;2023-10-19T08:19:56;8.90;99.90
3350;DHT22;1688;51.000;13.684;2023-10-19T08:22:29;8.90;99.90
3350;DHT22;1688;51.000;13.684;2023-10-19T08:25:04;8.90;99.90
3350;DHT22;1688;51.000;13.684;2023-10-19T08:27:44;8.90;99.90
3350;DHT22;1688;51.000;13.684;2023-10-19T08:30:19;8.90;99.90
3350;DHT22;1688;51.000;13.684;2023-10-19T08:32:56;8.90;99.90
3350;DHT22;1688;51.000;13.684;2023-10-19T08:35:31;8.90;99.90
3350;DHT22;1688;51.000;13.684;2023-10-19T08:38:04;8.90;99.90
3350;DHT22;1688;51.000;13.684;2023-10-19T08:40:43;8.90;99.90
3350;DHT22;1688;51.000;13.684;2023-10-19T08:43:17;9.00;99.90
3350;DHT22;1688;51.000;13.684;2023-10-19T08:45:51;9.00;99.90
3350;DHT22;1688;51.000;13.684;2023-10-19T08:48:26;9.20;99.90
3350;DHT22;1688;51.000;13.684;2023-10-19T08:51:02;9.20;99.90
3350;DHT22;1688;51.000;13.684;2023-10-19T08:53:39;9.20;99.90
3350;DHT22;1688;51.000;13.684;2023-10-19T08:56:13;9.20;99.90
3350;DHT22;1688;51.000;13.684;2023-10-19T08:58:50;9.20;99.90
3350;DHT22;1688;51.000;13.684;2023-10-19T09:01:24;9.20;99.90
3350;DHT22;1688;51.000;13.684;2023-10-19T09:04:00;9.30;99.90
3350;DHT22;1688;51.000;13.684;2023-10-19T09:06:37;9.30;99.90
3350;DHT22;1688;51.000;13.684;2023-10-19T09:09:17;9.40;99.90
3350;DHT22;1688;51.000;13.684;2023-10-19T09:11:52;9.50;99.90
3350;DHT22;1688;51.000;13.684;2023-10-19T09:14:33;9.60;99.90
3350;DHT22;1688;51.000;13.684;2023-10-19T09:17:12;9.80;99.90
3350;DHT22;1688;51.000;13.684;2023-10-19T09:19:46;9.80;99.90
3350;DHT22;1688;51.000;13.684;2023-10-19T09:22:22;10.00;99.90
3350;DHT22;1688;51.000;13.684;2023-10-19T09:24:57;10.10;99.90
3350;DHT22;1688;51.000;13.684;2023-10-19T09:27:30;10.20;99.90
3350;DHT22;1688;51.000;13.684;2023-10-19T09:30:05;10.30;99.90
3350;DHT22;1688;51.000;13.684;2023-10-19T09:32:40;10.40;99.90
3350;DHT22;1688;51.000;13.684;2023-10-19T09:35:15;10.60;99.90
3350;DHT22;1688;51.000;13.684;2023-10-19T09:37:48;10.70;99.90
3350;DHT22;1688;51.000;13.684;2023-10-19T09:40:22;10.70;99.90
3350;DHT22;1688;51.000;13.684;2023-10-19T09:42:57;10.80;99.90
3350;DHT22;1688;51.000;13.684;2023-10-19T09:45:32;10.90;99.90
3350;DHT22;1688;51.000;13.684;2023-10-19T09:48:10;10.90;99.90
3350;DHT22;1688;51.000;13.684;2023-10-19T09:50:53;11.00;99.90
3350;DHT22;1688;51.000;13.684;2023-10-19T09:53:31;11.00;99.90
3350;DHT22;1688;51.000;13.684;2023-10-19T09:56:13;11.10;99.90
3350;DHT22;1688;51.000;13.684;2023-10-19T09:58:51;11.00;99.90
3350;DHT22;1688;51.000;13.684;2023-10-19T10:01:27;10.90;99.90
3350;DHT22;1688;51.000;13.684;2023-10-19T10:04:00;10.80;99.90
3350;DHT22;1688;51.000;13.684;2023-10-19T10:09:29;10.90;99.90
3350;DHT22;1688;51.000;13.684;2023-10-19T10:12:19;11.00;99.90
3350;DHT22;1688;51.000;13.684;2023-10-19T10:17:34;11.30;99.90
3350;DHT22;1688;51.000;13.684;2023-10-19T10:23:15;11.40;99.90
3350;DHT22;1688;51.000;13.684;2023-10-19T10:25:50;11.30;99.90
3350;DHT22;1688;51.000;13.684;2023-10-19T10:28:26;11.40;99.90
3350;DHT22;1688;51.000;13.684;2023-10-19T10:31:08;11.40;99.90
3350;DHT22;1688;51.000;13.684;2023-10-19T10:33:44;11.60;99.90
3350;DHT22;1688;51.000;13.684;2023-10-19T10:36:21;11.70;99.90
3350;DHT22;1688;51.000;13.684;2023-10-19T10:39:02;11.80;99.90
3350;DHT22;1688;51.000;13.684;2023-10-19T10:41:37;11.90;99.90
3350;DHT22;1688;51.000;13.684;2023-10-19T10:44:10;11.90;99.90
3350;DHT22;1688;51.000;13.684;2023-10-19T10:46:43;11.90;99.90
3350;DHT22;1688;51.000;13.684;2023-10-19T10:49:16;11.90;99.90
3350;DHT22;1688;51.000;13.684;2023-10-19T10:51:49;12.00;99.90
3350;DHT22;1688;51.000;13.684;2023-10-19T10:54:23;12.00;99.90
3350;DHT22;1688;51.000;13.684;2023-10-19T10:56:56;12.20;99.90
3350;DHT22;1688;51.000;13.684;2023-10-19T10:59:29;12.30;99.90
3350;DHT22;1688;51.000;13.684;2023-10-19T11:02:16;12.40;99.90
3350;DHT22;1688;51.000;13.684;2023-10-19T11:04:49;12.40;99.90
3350;DHT22;1688;51.000;13.684;2023-10-19T11:07:22;12.50;99.90
3350;DHT22;1688;51.000;13.684;2023-10-19T11:09:56;12.70;99.90
3350;DHT22;1688;51.000;13.684;2023-10-19T11:12:29;12.60;99.90
3350;DHT22;1688;51.000;13.684;2023-10-19T11:15:03;12.70;99.90
3350;DHT22;1688;51.000;13.684;2023-10-19T11:17:45;12.80;99.90
3350;DHT22;1688;51.000;13.684;2023-10-19T11:20:23;13.00;99.90
3350;DHT22;1688;51.000;13.684;2023-10-19T11:22:57;13.10;99.90
3350;DHT22;1688;51.000;13.684;2023-10-19T11:25:33;13.20;99.90
3350;DHT22;1688;51.000;13.684;2023-10-19T11:28:17;13.40;99.90
3350;DHT22;1688;51.000;13.684;2023-10-19T11:30:51;13.40;99.90
3350;DHT22;1688;51.000;13.684;2023-10-19T11:33:24;13.30;99.90
3350;DHT22;1688;51.000;13.684;2023-10-19T11:35:58;13.10;99.90
3350;DHT22;1688;51.000;13.684;2023-10-19T11:38:31;12.80;99.90
3350;DHT22;1688;51.000;13.684;2023-10-19T11:41:04;12.50;99.90
3350;DHT22;1688;51.000;13.684;2023-10-19T11:43:39;12.30;99.90
3350;DHT22;1688;51.000;13.684;2023-10-19T11:46:13;12.20;99.90
3350;DHT22;1688;51.000;13.684;2023-10-19T11:48:47;12.00;99.90
3350;DHT22;1688;51.000;13.684;2023-10-19T11:51:20;11.80;99.90
3350;DHT22;1688;51.000;13.684;2023-10-19T11:53:53;11.70;99.90
3350;DHT22;1688;51.000;13.684;2023-10-19T11:56:26;11.60;99.90
3350;DHT22;1688;51.000;13.684;2023-10-19T11:58:59;11.60;99.90
3350;DHT22;1688;51.000;13.684;2023-10-19T12:01:32;11.70;99.90
3350;DHT22;1688;51.000;13.684;2023-10-19T12:04:05;11.90;99.90
3350;DHT22;1688;51.000;13.684;2023-10-19T12:06:38;12.00;99.90
3350;DHT22;1688;51.000;13.684;2023-10-19T12:09:11;12.10;99.90
3350;DHT22;1688;51.000;13.684;2023-10-19T12:11:48;12.10;99.90
3350;DHT22;1688;51.000;13.684;2023-10-19T12:14:22;12.10;99.90
3350;DHT22;1688;51.000;13.684;2023-10-19T12:16:55;12.10;99.90
3350;DHT22;1688;51.000;13.684;2023-10-19T12:19:31;12.10;99.90
3350;DHT22;1688;51.000;13.684;2023-10-19T12:22:04;12.00;99.90
3350;DHT22;1688;51.000;13.684;2023-10-19T12:24:37;11.80;99.90
3350;DHT22;1688;51.000;13.684;2023-10-19T12:27:10;11.80;99.90
3350;DHT22;1688;51.000;13.684;2023-10-19T12:29:43;11.80;99.90
3350;DHT22;1688;51.000;13.684;2023-10-19T12:32:15;11.90;99.90
3350;DHT22;1688;51.000;13.684;2023-10-19T12:34:49;11.90;99.90
3350;DHT22;1688;51.000;13.684;2023-10-19T12:37:30;12.00;99.90
3350;DHT22;1688;51.000;13.684;2023-10-19T12:40:03;12.10;99.90
3350;DHT22;1688;51.000;13.684;2023-10-19T12:42:56;12.00;99.90
3350;DHT22;1688;51.000;13.684;2023-10-19T12:45:30;11.80;99.90
3350;DHT22;1688;51.000;13.684;2023-10-19T12:48:09;11.60;99.90
3350;DHT22;1688;51.000;13.684;2023-10-19T12:50:44;11.50;99.90
3350;DHT22;1688;51.000;13.684;2023-10-19T12:53:16;11.50;99.90
3350;DHT22;1688;51.000;13.684;2023-10-19T12:55:49;11.50;99.90
3350;DHT22;1688;51.000;13.684;2023-10-19T12:58:22;11.60;99.90
3350;DHT22;1688;51.000;13.684;2023-10-19T13:00:55;11.90;99.90
3350;DHT22;1688;51.000;13.684;2023-10-19T13:03:28;12.00;99.90
3350;DHT22;1688;51.000;13.684;2023-10-19T13:06:05;12.20;99.90
3350;DHT22;1688;51.000;13.684;2023-10-19T13:08:40;12.10;99.90
3350;DHT22;1688;51.000;13.684;2023-10-19T13:11:15;11.90;99.90
3350;DHT22;1688;51.000;13.684;2023-10-19T13:13:50;11.80;99.90
3350;DHT22;1688;51.000;13.684;2023-10-19T13:16:23;11.70;99.90
3350;DHT22;1688;51.000;13.684;2023-10-19T13:18:57;11.80;99.90
3350;DHT22;1688;51.000;13.684;2023-10-19T13:21:30;11.90;99.90
3350;DHT22;1688;51.000;13.684;2023-10-19T13:24:05;12.10;99.90
3350;DHT22;1688;51.000;13.684;2023-10-19T13:26:38;12.20;99.90
3350;DHT22;1688;51.000;13.684;2023-10-19T13:29:13;12.30;99.90
3350;DHT22;1688;51.000;13.684;2023-10-19T13:31:47;12.50;99.90
3350;DHT22;1688;51.000;13.684;2023-10-19T13:34:25;12.60;99.90
3350;DHT22;1688;51.000;13.684;2023-10-19T13:36:58;12.80;99.90
3350;DHT22;1688;51.000;13.684;2023-10-19T13:39:31;12.80;99.90
3350;DHT22;1688;51.000;13.684;2023-10-19T13:42:04;13.00;99.90
3350;DHT22;1688;51.000;13.684;2023-10-19T13:44:38;13.00;99.90
3350;DHT22;1688;51.000;13.684;2023-10-19T13:47:12;13.20;99.90
3350;DHT22;1688;51.000;13.684;2023-10-19T13:49:44;13.30;99.90
3350;DHT22;1688;51.000;13.684;2023-10-19T13:52:19;13.20;99.90
3350;DHT22;1688;51.000;13.684;2023-10-19T13:54:52;13.30;99.90
3350;DHT22;1688;51.000;13.684;2023-10-19T13:57:25;13.40;99.90
3350;DHT22;1688;51.000;13.684;2023-10-19T13:59:58;13.40;99.90
3350;DHT22;1688;51.000;13.684;2023-10-19T14:02:31;13.50;99.90
3350;DHT22;1688;51.000;13.684;2023-10-19T14:05:04;13.40;99.90
3350;DHT22;1688;51.000;13.684;2023-10-19T14:07:37;13.30;99.90
3350;DHT22;1688;51.000;13.684;2023-10-19T14:10:13;13.10;99.90
3350;DHT22;1688;51.000;13.684;2023-10-19T14:12:46;13.10;99.90
3350;DHT22;1688;51.000;13.684;2023-10-19T14:15:19;13.10;99.90
3350;DHT22;1688;51.000;13.684;2023-10-19T14:17:52;13.20;99.90
3350;DHT22;1688;51.000;13.684;2023-10-19T14:20:29;13.20;99.90
3350;DHT22;1688;51.000;13.684;2023-10-19T14:23:03;13.20;99.90
3350;DHT22;1688;51.000;13.684;2023-10-19T14:25:37;13.30;99.90
3350;DHT22;1688;51.000;13.684;2023-10-19T14:28:12;13.20;99.90
3350;DHT22;1688;51.000;13.684;2023-10-19T14:30:45;13.30;99.90
3350;DHT22;1688;51.000;13.684;2023-10-19T14:33:19;13.20;99.90
3350;DHT22;1688;51.000;13.684;2023-10-19T14:35:52;13.10;99.90
3350;DHT22;1688;51.000;13.684;2023-10-19T14:38:24;13.10;99.90
3350;DHT22;1688;51.000;13.684;2023-10-19T14:41:00;13.00;99.90
3350;DHT22;1688;51.000;13.684;2023-10-19T14:43:33;12.80;99.90
3350;DHT22;1688;51.000;13.684;2023-10-19T14:46:06;12.70;99.90
3350;DHT22;1688;51.000;13.684;2023-10-19T14:48:39;12.60;99.90
3350;DHT22;1688;51.000;13.684;2023-10-19T14:51:12;12.50;99.90
3350;DHT22;1688;51.000;13.684;2023-10-19T14:53:45;12.40;99.90
3350;DHT22;1688;51.000;13.684;2023-10-19T14:56:19;12.30;99.90
3350;DHT22;1688;51.000;13.684;2023-10-19T14:58:52;12.20;99.90
3350;DHT22;1688;51.000;13.684;2023-10-19T15:01:27;12.20;99.90
3350;DHT22;1688;51.000;13.684;2023-10-19T15:04:00;12.20;99.90
3350;DHT22;1688;51.000;13.684;2023-10-19T15:06:33;12.30;99.90
3350;DHT22;1688;51.000;13.684;2023-10-19T15:09:11;12.30;99.90
3350;DHT22;1688;51.000;13.684;2023-10-19T15:11:47;12.30;99.90
3350;DHT22;1688;51.000;13.684;2023-10-19T15:14:20;12.40;99.90
3350;DHT22;1688;51.000;13.684;2023-10-19T15:16:53;12.40;99.90
3350;DHT22;1688;51.000;13.684;2023-10-19T15:19:26;12.30;99.90
3350;DHT22;1688;51.000;13.684;2023-10-19T15:21:59;12.30;99.90
3350;DHT22;1688;51.000;13.684;2023-10-19T15:24:32;12.40;99.90
3350;DHT22;1688;51.000;13.684;2023-10-19T15:27:05;12.40;99.90
3350;DHT22;1688;51.000;13.684;2023-10-19T15:29:38;12.30;99.90
3350;DHT22;1688;51.000;13.684;2023-10-19T15:32:11;12.40;99.90
3350;DHT22;1688;51.000;13.684;2023-10-19T15:34:43;12.30;99.90
3350;DHT22;1688;51.000;13.684;2023-10-19T15:37:17;12.00;99.90
3350;DHT22;1688;51.000;13.684;2023-10-19T15:39:50;11.70;99.90
3350;DHT22;1688;51.000;13.684;2023-10-19T15:42:23;11.50;99.90
3350;DHT22;1688;51.000;13.684;2023-10-19T15:44:56;11.50;99.90
3350;DHT22;1688;51.000;13.684;2023-10-19T15:47:29;11.50;99.90
3350;DHT22;1688;51.000;13.684;2023-10-19T15:50:03;11.50;99.90
3350;DHT22;1688;51.000;13.684;2023-10-19T15:52:36;11.50;99.90
3350;DHT22;1688;51.000;13.684;2023-10-19T15:55:14;11.50;99.90
3350;DHT22;1688;51.000;13.684;2023-10-19T15:57:47;11.40;99.90
3350;DHT22;1688;51.000;13.684;2023-10-19T16:00:23;11.40;99.90
3350;DHT22;1688;51.000;13.684;2023-10-19T16:02:55;11.30;99.90
3350;DHT22;1688;51.000;13.684;2023-10-19T16:05:29;11.30;99.90
3350;DHT22;1688;51.000;13.684;2023-10-19T16:08:02;11.20;99.90
3350;DHT22;1688;51.000;13.684;2023-10-19T16:10:35;11.10;99.90
3350;DHT22;1688;51.000;13.684;2023-10-19T16:13:09;11.10;99.90
3350;DHT22;1688;51.000;13.684;2023-10-19T16:15:42;10.90;99.90
3350;DHT22;1688;51.000;13.684;2023-10-19T16:18:15;11.10;99.90
3350;DHT22;1688;51.000;13.684;2023-10-19T16:20:48;11.20;99.90
3350;DHT22;1688;51.000;13.684;2023-10-19T16:23:21;11.30;99.90
3350;DHT22;1688;51.000;13.684;2023-10-19T16:25:58;11.40;99.90
3350;DHT22;1688;51.000;13.684;2023-10-19T16:28:36;11.30;99.90
3350;DHT22;1688;51.000;13.684;2023-10-19T16:31:08;11.20;99.90
3350;DHT22;1688;51.000;13.684;2023-10-19T16:33:44;11.30;99.90
3350;DHT22;1688;51.000;13.684;2023-10-19T16:36:17;11.40;99.90
3350;DHT22;1688;51.000;13.684;2023-10-19T16:38:51;11.60;99.90
3350;DHT22;1688;51.000;13.684;2023-10-19T16:41:24;11.50;99.90
3350;DHT22;1688;51.000;13.684;2023-10-19T16:43:57;11.50;99.90
3350;DHT22;1688;51.000;13.684;2023-10-19T16:46:34;11.50;99.90
3350;DHT22;1688;51.000;13.684;2023-10-19T16:49:10;11.60;99.90